PWSweather.com
Personal Weather Stations
Station Observations
KNCDUNN5
Dunn, NC

Dunn, NC

Lat: 35.353324, Lon: -78.558324

Elevation: 226

Station Type: AcuRite Pro Weather Center 5-in-1

Latest ConditionsUpdated 3:58:52 AM EDT Sunday, Apr 23, 2017
Currently Today's Max Today's Min Today's Average
Temperature 57.6°F14.2°C 62.6°F17.0°C 57.6°F14.2°C 59.8°F15.4°C
Dew Point 55.3°F12.9°C 56.7°F13.7°C 55.1°F12.8°C 55.9°F13.3°C
Winds 7.3 mph NNE11.7 kmh NNE 15.5 mph NNE24.9 kmh NNE - 6.2 mph 10.0 kmh
Wind Gusts 13.5 mph21.7 kmh 15.5 mph24.9 kmh - -
Humidity 92% 92% 80% 87%
Pressure 29.95 in1014.2 mb 29.95 in1014.2 mb 29.93 in1013.5 mb -
Precipitation - 0.22 in5.6 mm - -
Hour Temp Dew Point Humidity Winds Wind Gusts Pressure Precip Precip Rate Daily Precip Total
03:58 AM 57.6°F14.2°C 55.3°F12.9°C 92% 8.3 mph NNE13.4 kmh NNE 13.5 mph21.7 kmh 29.95 in1014.2 mb 0.08 in2.0 mm 0.00 in0.0 mm 0.22 in5.6 mm
03:57 AM 57.6°F14.2°C 55.3°F12.9°C 92% 3.7 mph N6.0 kmh N 13.5 mph21.7 kmh 29.95 in1014.2 mb 0.08 in2.0 mm 0.00 in0.0 mm 0.22 in5.6 mm
03:56 AM 57.7°F14.3°C 55.4°F13.0°C 92% 7.8 mph NNE12.6 kmh NNE 13.5 mph21.7 kmh 29.95 in1014.2 mb 0.08 in2.0 mm 0.00 in0.0 mm 0.22 in5.6 mm
03:55 AM 57.7°F14.3°C 55.4°F13.0°C 92% 4.7 mph NNE7.6 kmh NNE 9.4 mph15.1 kmh 29.95 in1014.2 mb 0.08 in2.0 mm 0.00 in0.0 mm 0.22 in5.6 mm
03:54 AM 57.7°F14.3°C 55.4°F13.0°C 92% 7.3 mph NNW11.7 kmh NNW 9.4 mph15.1 kmh 29.95 in1014.2 mb 0.08 in2.0 mm 0.00 in0.0 mm 0.22 in5.6 mm
03:53 AM 57.7°F14.3°C 55.4°F13.0°C 92% 4.2 mph NNW6.8 kmh NNW 9.4 mph15.1 kmh 29.95 in1014.2 mb 0.08 in2.0 mm 0.00 in0.0 mm 0.22 in5.6 mm
03:52 AM 57.7°F14.3°C 55.4°F13.0°C 92% 5.3 mph NNE8.5 kmh NNE 9.4 mph15.1 kmh 29.95 in1014.2 mb 0.08 in2.0 mm 0.00 in0.0 mm 0.22 in5.6 mm
03:51 AM 57.7°F14.3°C 55.4°F13.0°C 92% 5.3 mph NNE8.5 kmh NNE 9.4 mph15.1 kmh 29.95 in1014.2 mb 0.08 in2.0 mm 0.00 in0.0 mm 0.22 in5.6 mm
03:50 AM 57.7°F14.3°C 55.4°F13.0°C 92% 6.3 mph ENE10.1 kmh ENE 9.4 mph15.1 kmh 29.95 in1014.2 mb 0.08 in2.0 mm 0.00 in0.0 mm 0.22 in5.6 mm
03:49 AM 57.7°F14.3°C 55.4°F13.0°C 92% 9.4 mph NNW15.1 kmh NNW 9.4 mph15.1 kmh 29.95 in1014.2 mb 0.08 in2.0 mm 0.00 in0.0 mm 0.22 in5.6 mm
03:48 AM 57.7°F14.3°C 55.4°F13.0°C 92% 7.8 mph NNE12.6 kmh NNE 9.4 mph15.1 kmh 29.95 in1014.2 mb 0.08 in2.0 mm 0.00 in0.0 mm 0.22 in5.6 mm
03:47 AM 57.7°F14.3°C 55.4°F13.0°C 92% 7.8 mph N12.6 kmh N 9.4 mph15.1 kmh 29.95 in1014.2 mb 0.08 in2.0 mm 0.00 in0.0 mm 0.22 in5.6 mm
03:46 AM 57.7°F14.3°C 55.4°F13.0°C 92% 6.3 mph N10.1 kmh N 9.4 mph15.1 kmh 29.95 in1014.2 mb 0.08 in2.0 mm 0.00 in0.0 mm 0.22 in5.6 mm
03:45 AM 57.7°F14.3°C 55.4°F13.0°C 92% 6.3 mph NNE10.1 kmh NNE 9.4 mph15.1 kmh 29.95 in1014.2 mb 0.08 in2.0 mm 0.00 in0.0 mm 0.22 in5.6 mm
03:44 AM 57.7°F14.3°C 55.4°F13.0°C 92% 5.8 mph NNE9.3 kmh NNE 9.4 mph15.1 kmh 29.95 in1014.2 mb 0.08 in2.0 mm 0.60 in15.2 mm 0.22 in5.6 mm
03:43 AM 57.7°F14.3°C 55.4°F13.0°C 92% 2.2 mph NNW3.5 kmh NNW 9.4 mph15.1 kmh 29.95 in1014.2 mb 0.07 in1.8 mm 0.00 in0.0 mm 0.21 in5.3 mm
03:42 AM 57.7°F14.3°C 55.4°F13.0°C 92% 3.7 mph NNE6.0 kmh NNE 10.4 mph16.7 kmh 29.95 in1014.2 mb 0.07 in1.8 mm 0.00 in0.0 mm 0.21 in5.3 mm
03:41 AM 57.9°F14.4°C 55.6°F13.1°C 92% 8.3 mph WNW13.4 kmh WNW 10.9 mph17.5 kmh 29.95 in1014.2 mb 0.07 in1.8 mm 0.00 in0.0 mm 0.21 in5.3 mm
03:40 AM 57.9°F14.4°C 55.6°F13.1°C 92% 6.8 mph NNE10.9 kmh NNE 10.9 mph17.5 kmh 29.95 in1014.2 mb 0.07 in1.8 mm 0.00 in0.0 mm 0.21 in5.3 mm
03:39 AM 57.9°F14.4°C 55.6°F13.1°C 92% 4.2 mph ENE6.8 kmh ENE 10.9 mph17.5 kmh 29.95 in1014.2 mb 0.07 in1.8 mm 0.00 in0.0 mm 0.21 in5.3 mm
03:38 AM 57.9°F14.4°C 55.6°F13.1°C 92% 6.8 mph NNW10.9 kmh NNW 10.9 mph17.5 kmh 29.95 in1014.2 mb 0.07 in1.8 mm 0.00 in0.0 mm 0.21 in5.3 mm
03:37 AM 57.9°F14.4°C 55.6°F13.1°C 92% 7.8 mph NNW12.6 kmh NNW 10.9 mph17.5 kmh 29.95 in1014.2 mb 0.07 in1.8 mm 0.00 in0.0 mm 0.21 in5.3 mm
03:36 AM 58.1°F14.5°C 55.8°F13.2°C 92% 7.8 mph N12.6 kmh N 10.9 mph17.5 kmh 29.95 in1014.2 mb 0.08 in2.0 mm 0.60 in15.2 mm 0.21 in5.3 mm
03:35 AM 58.1°F14.5°C 55.8°F13.2°C 92% 6.3 mph N10.1 kmh N 10.9 mph17.5 kmh 29.95 in1014.2 mb 0.07 in1.8 mm 0.00 in0.0 mm 0.20 in5.1 mm
03:34 AM 58.1°F14.5°C 55.8°F13.2°C 92% 7.8 mph NNE12.6 kmh NNE 10.9 mph17.5 kmh 29.95 in1014.2 mb 0.07 in1.8 mm 0.60 in15.2 mm 0.20 in5.1 mm
03:33 AM 58.1°F14.5°C 55.8°F13.2°C 92% 8.3 mph NNE13.4 kmh NNE 10.9 mph17.5 kmh 29.95 in1014.2 mb 0.06 in1.5 mm 0.60 in15.2 mm 0.19 in4.8 mm
03:32 AM 58.3°F14.6°C 56.0°F13.3°C 92% 10.9 mph N17.5 kmh N 10.9 mph17.5 kmh 29.95 in1014.2 mb 0.05 in1.3 mm 0.00 in0.0 mm 0.18 in4.6 mm
03:31 AM 58.3°F14.6°C 55.7°F13.2°C 91% 5.8 mph N9.3 kmh N 9.4 mph15.1 kmh 29.95 in1014.2 mb 0.05 in1.3 mm 0.60 in15.2 mm 0.18 in4.6 mm
03:30 AM 58.3°F14.6°C 55.7°F13.2°C 91% 6.8 mph NNW10.9 kmh NNW 9.4 mph15.1 kmh 29.95 in1014.2 mb 0.04 in1.0 mm 0.00 in0.0 mm 0.17 in4.3 mm
03:29 AM 58.3°F14.6°C 55.7°F13.2°C 91% 7.8 mph NNW12.6 kmh NNW 9.4 mph15.1 kmh 29.95 in1014.2 mb 0.04 in1.0 mm 0.00 in0.0 mm 0.17 in4.3 mm
03:28 AM 58.3°F14.6°C 55.7°F13.2°C 91% 9.4 mph NNW15.1 kmh NNW 9.4 mph15.1 kmh 29.95 in1014.2 mb 0.04 in1.0 mm 0.00 in0.0 mm 0.17 in4.3 mm
03:27 AM 58.3°F14.6°C 55.7°F13.2°C 91% 4.7 mph NNE7.6 kmh NNE 7.8 mph12.6 kmh 29.95 in1014.2 mb 0.04 in1.0 mm 0.00 in0.0 mm 0.17 in4.3 mm
03:26 AM 58.3°F14.6°C 55.7°F13.2°C 91% 4.7 mph NNE7.6 kmh NNE 7.8 mph12.6 kmh 29.95 in1014.2 mb 0.04 in1.0 mm 0.60 in15.2 mm 0.17 in4.3 mm
03:25 AM 58.3°F14.6°C 55.7°F13.2°C 91% 6.3 mph NE10.1 kmh NE 7.8 mph12.6 kmh 29.94 in1013.9 mb 0.03 in0.8 mm 0.00 in0.0 mm 0.16 in4.1 mm
03:24 AM 58.3°F14.6°C 55.7°F13.2°C 91% 5.8 mph NE9.3 kmh NE 8.3 mph13.4 kmh 29.94 in1013.9 mb 0.03 in0.8 mm 0.00 in0.0 mm 0.16 in4.1 mm
03:23 AM 58.3°F14.6°C 55.7°F13.2°C 91% 4.2 mph NNW6.8 kmh NNW 10.9 mph17.5 kmh 29.94 in1013.9 mb 0.03 in0.8 mm 0.00 in0.0 mm 0.16 in4.1 mm
03:22 AM 58.3°F14.6°C 55.7°F13.2°C 91% 4.2 mph NNE6.8 kmh NNE 10.9 mph17.5 kmh 29.94 in1013.9 mb 0.03 in0.8 mm 0.00 in0.0 mm 0.16 in4.1 mm
03:21 AM 58.5°F14.7°C 55.9°F13.3°C 91% 7.8 mph NNE12.6 kmh NNE 10.9 mph17.5 kmh 29.94 in1013.9 mb 0.03 in0.8 mm 0.00 in0.0 mm 0.16 in4.1 mm
03:20 AM 58.5°F14.7°C 55.9°F13.3°C 91% 4.2 mph N6.8 kmh N 10.9 mph17.5 kmh 29.94 in1013.9 mb 0.03 in0.8 mm 0.00 in0.0 mm 0.16 in4.1 mm
03:19 AM 58.5°F14.7°C 55.9°F13.3°C 91% 5.8 mph NNE9.3 kmh NNE 10.9 mph17.5 kmh 29.94 in1013.9 mb 0.03 in0.8 mm 0.00 in0.0 mm 0.16 in4.1 mm
03:18 AM 58.5°F14.7°C 55.9°F13.3°C 91% 5.8 mph NW9.3 kmh NW 10.9 mph17.5 kmh 29.94 in1013.9 mb 0.03 in0.8 mm 0.00 in0.0 mm 0.16 in4.1 mm
03:17 AM 58.5°F14.7°C 55.9°F13.3°C 91% 7.3 mph NW11.7 kmh NW 10.9 mph17.5 kmh 29.94 in1013.9 mb 0.03 in0.8 mm 0.00 in0.0 mm 0.16 in4.1 mm
03:16 AM 58.5°F14.7°C 55.9°F13.3°C 91% 6.8 mph NNW10.9 kmh NNW 10.9 mph17.5 kmh 29.94 in1013.9 mb 0.04 in1.0 mm 0.00 in0.0 mm 0.16 in4.1 mm
03:15 AM 58.5°F14.7°C 55.9°F13.3°C 91% 4.7 mph NNE7.6 kmh NNE 10.9 mph17.5 kmh 29.94 in1013.9 mb 0.04 in1.0 mm 0.00 in0.0 mm 0.16 in4.1 mm
03:14 AM 58.5°F14.7°C 55.9°F13.3°C 91% 7.3 mph N11.7 kmh N 10.9 mph17.5 kmh 29.94 in1013.9 mb 0.06 in1.5 mm 0.00 in0.0 mm 0.16 in4.1 mm
03:13 AM 58.5°F14.7°C 55.9°F13.3°C 91% 10.9 mph NNE17.5 kmh NNE 10.9 mph17.5 kmh 29.94 in1013.9 mb 0.07 in1.8 mm 0.00 in0.0 mm 0.16 in4.1 mm
03:12 AM 58.5°F14.7°C 55.9°F13.3°C 91% 8.3 mph NNE13.4 kmh NNE 9.4 mph15.1 kmh 29.94 in1013.9 mb 0.09 in2.3 mm 0.00 in0.0 mm 0.16 in4.1 mm
03:11 AM 58.6°F14.8°C 56.0°F13.3°C 91% 8.3 mph ENE13.4 kmh ENE 9.9 mph15.9 kmh 29.94 in1013.9 mb 0.11 in2.8 mm 0.00 in0.0 mm 0.16 in4.1 mm
03:10 AM 58.6°F14.8°C 56.0°F13.3°C 91% 4.7 mph NNE7.6 kmh NNE 9.9 mph15.9 kmh 29.94 in1013.9 mb 0.12 in3.0 mm 0.00 in0.0 mm 0.15 in3.8 mm
03:09 AM 58.8°F14.9°C 56.2°F13.4°C 91% 5.3 mph N8.5 kmh N 9.9 mph15.9 kmh 29.94 in1013.9 mb 0.14 in3.6 mm 0.00 in0.0 mm 0.15 in3.8 mm
03:08 AM 58.8°F14.9°C 56.2°F13.4°C 91% 5.8 mph NNE9.3 kmh NNE 9.9 mph15.9 kmh 29.94 in1013.9 mb 0.14 in3.6 mm 0.60 in15.2 mm 0.15 in3.8 mm
03:07 AM 58.8°F14.9°C 56.2°F13.4°C 91% 4.7 mph NNE7.6 kmh NNE 9.9 mph15.9 kmh 29.94 in1013.9 mb 0.13 in3.3 mm 0.00 in0.0 mm 0.14 in3.6 mm
03:06 AM 58.8°F14.9°C 56.2°F13.4°C 91% 6.3 mph N10.1 kmh N 9.9 mph15.9 kmh 29.94 in1013.9 mb 0.13 in3.3 mm 0.00 in0.0 mm 0.14 in3.6 mm
03:05 AM 58.8°F14.9°C 56.2°F13.4°C 91% 5.3 mph N8.5 kmh N 9.9 mph15.9 kmh 29.94 in1013.9 mb 0.13 in3.3 mm 0.00 in0.0 mm 0.14 in3.6 mm
03:04 AM 58.8°F14.9°C 56.2°F13.4°C 91% 6.3 mph N10.1 kmh N 9.9 mph15.9 kmh 29.94 in1013.9 mb 0.13 in3.3 mm 0.00 in0.0 mm 0.14 in3.6 mm
03:03 AM 58.8°F14.9°C 56.2°F13.4°C 91% 5.3 mph N8.5 kmh N 9.9 mph15.9 kmh 29.94 in1013.9 mb 0.13 in3.3 mm 0.00 in0.0 mm 0.14 in3.6 mm
03:02 AM 58.8°F14.9°C 56.2°F13.4°C 91% 9.4 mph NNW15.1 kmh NNW 9.9 mph15.9 kmh 29.94 in1013.9 mb 0.13 in3.3 mm 0.00 in0.0 mm 0.14 in3.6 mm
03:01 AM 58.8°F14.9°C 56.2°F13.4°C 91% 4.7 mph NNE7.6 kmh NNE 10.4 mph16.7 kmh 29.94 in1013.9 mb 0.13 in3.3 mm 0.00 in0.0 mm 0.14 in3.6 mm
03:00 AM 58.8°F14.9°C 56.2°F13.4°C 91% 2.7 mph NNW4.3 kmh NNW 10.4 mph16.7 kmh 29.94 in1013.9 mb 0.13 in3.3 mm 0.00 in0.0 mm 0.14 in3.6 mm
02:59 AM 58.8°F14.9°C 56.2°F13.4°C 91% 3.7 mph NNE6.0 kmh NNE 10.4 mph16.7 kmh 29.94 in1013.9 mb 0.13 in3.3 mm 0.00 in0.0 mm 0.14 in3.6 mm
02:58 AM 58.8°F14.9°C 56.2°F13.4°C 91% 4.2 mph NNE6.8 kmh NNE 10.4 mph16.7 kmh 29.94 in1013.9 mb 0.13 in3.3 mm 0.00 in0.0 mm 0.14 in3.6 mm
02:57 AM 58.8°F14.9°C 56.2°F13.4°C 91% 2.2 mph N3.5 kmh N 10.4 mph16.7 kmh 29.94 in1013.9 mb 0.13 in3.3 mm 0.00 in0.0 mm 0.14 in3.6 mm
02:56 AM 58.8°F14.9°C 56.2°F13.4°C 91% 5.3 mph NNE8.5 kmh NNE 10.4 mph16.7 kmh 29.94 in1013.9 mb 0.13 in3.3 mm 0.00 in0.0 mm 0.14 in3.6 mm
02:55 AM 58.8°F14.9°C 56.2°F13.4°C 91% 3.2 mph NNE5.1 kmh NNE 10.4 mph16.7 kmh 29.94 in1013.9 mb 0.13 in3.3 mm 0.00 in0.0 mm 0.14 in3.6 mm
02:54 AM 58.8°F14.9°C 56.2°F13.4°C 91% 5.3 mph NE8.5 kmh NE 10.4 mph16.7 kmh 29.94 in1013.9 mb 0.13 in3.3 mm 0.00 in0.0 mm 0.14 in3.6 mm
02:53 AM 58.8°F14.9°C 56.2°F13.4°C 91% 6.3 mph NE10.1 kmh NE 10.4 mph16.7 kmh 29.94 in1013.9 mb 0.13 in3.3 mm 0.00 in0.0 mm 0.14 in3.6 mm
02:52 AM 58.8°F14.9°C 56.2°F13.4°C 91% 7.3 mph NNE11.7 kmh NNE 10.4 mph16.7 kmh 29.94 in1013.9 mb 0.13 in3.3 mm 0.00 in0.0 mm 0.14 in3.6 mm
02:51 AM 58.8°F14.9°C 56.2°F13.4°C 91% 4.2 mph NNE6.8 kmh NNE 6.8 mph10.9 kmh 29.94 in1013.9 mb 0.13 in3.3 mm 0.00 in0.0 mm 0.14 in3.6 mm
02:50 AM 58.8°F14.9°C 56.2°F13.4°C 91% 6.3 mph NNE10.1 kmh NNE 7.3 mph11.7 kmh 29.94 in1013.9 mb 0.13 in3.3 mm 0.00 in0.0 mm 0.14 in3.6 mm
02:49 AM 58.8°F14.9°C 56.2°F13.4°C 91% 4.7 mph NE7.6 kmh NE 7.3 mph11.7 kmh 29.94 in1013.9 mb 0.13 in3.3 mm 0.00 in0.0 mm 0.14 in3.6 mm
02:48 AM 58.8°F14.9°C 56.2°F13.4°C 91% 4.2 mph N6.8 kmh N 7.3 mph11.7 kmh 29.94 in1013.9 mb 0.13 in3.3 mm 0.00 in0.0 mm 0.14 in3.6 mm
02:47 AM 58.8°F14.9°C 56.2°F13.4°C 91% 5.8 mph NNE9.3 kmh NNE 7.3 mph11.7 kmh 29.94 in1013.9 mb 0.13 in3.3 mm 0.00 in0.0 mm 0.14 in3.6 mm
02:46 AM 58.8°F14.9°C 56.2°F13.4°C 91% 4.7 mph NNE7.6 kmh NNE 7.3 mph11.7 kmh 29.94 in1013.9 mb 0.13 in3.3 mm 0.00 in0.0 mm 0.14 in3.6 mm
02:45 AM 58.8°F14.9°C 56.2°F13.4°C 91% 3.7 mph NNW6.0 kmh NNW 7.3 mph11.7 kmh 29.94 in1013.9 mb 0.13 in3.3 mm 0.00 in0.0 mm 0.14 in3.6 mm
02:44 AM 58.8°F14.9°C 56.2°F13.4°C 91% 4.2 mph NNE6.8 kmh NNE 7.8 mph12.6 kmh 29.94 in1013.9 mb 0.13 in3.3 mm 0.00 in0.0 mm 0.14 in3.6 mm
02:43 AM 58.8°F14.9°C 56.2°F13.4°C 91% 6.8 mph NW10.9 kmh NW 8.9 mph14.3 kmh 29.94 in1013.9 mb 0.13 in3.3 mm 0.00 in0.0 mm 0.14 in3.6 mm
02:42 AM 58.8°F14.9°C 56.2°F13.4°C 91% 5.8 mph NNE9.3 kmh NNE 8.9 mph14.3 kmh 29.94 in1013.9 mb 0.13 in3.3 mm 0.00 in0.0 mm 0.14 in3.6 mm
02:41 AM 58.8°F14.9°C 56.2°F13.4°C 91% 5.3 mph NNE8.5 kmh NNE 8.9 mph14.3 kmh 29.94 in1013.9 mb 0.13 in3.3 mm 0.00 in0.0 mm 0.14 in3.6 mm
02:40 AM 58.8°F14.9°C 56.2°F13.4°C 91% 5.3 mph NNE8.5 kmh NNE 8.9 mph14.3 kmh 29.94 in1013.9 mb 0.13 in3.3 mm 0.00 in0.0 mm 0.14 in3.6 mm
02:39 AM 58.8°F14.9°C 56.2°F13.4°C 91% 5.8 mph NNE9.3 kmh NNE 8.9 mph14.3 kmh 29.94 in1013.9 mb 0.13 in3.3 mm 0.00 in0.0 mm 0.14 in3.6 mm
02:38 AM 58.8°F14.9°C 56.2°F13.4°C 91% 4.2 mph NE6.8 kmh NE 8.9 mph14.3 kmh 29.94 in1013.9 mb 0.13 in3.3 mm 0.00 in0.0 mm 0.14 in3.6 mm
02:37 AM 58.8°F14.9°C 56.2°F13.4°C 91% 4.7 mph NE7.6 kmh NE 8.9 mph14.3 kmh 29.94 in1013.9 mb 0.13 in3.3 mm 0.00 in0.0 mm 0.14 in3.6 mm
02:36 AM 58.8°F14.9°C 56.2°F13.4°C 91% 5.3 mph NE8.5 kmh NE 9.9 mph15.9 kmh 29.94 in1013.9 mb 0.13 in3.3 mm 0.00 in0.0 mm 0.13 in3.3 mm
02:35 AM 58.8°F14.9°C 56.2°F13.4°C 91% 4.2 mph ENE6.8 kmh ENE 9.9 mph15.9 kmh 29.94 in1013.9 mb 0.13 in3.3 mm 0.00 in0.0 mm 0.13 in3.3 mm
02:34 AM 58.8°F14.9°C 56.2°F13.4°C 91% 7.8 mph NE12.6 kmh NE 9.9 mph15.9 kmh 29.94 in1013.9 mb 0.13 in3.3 mm 0.00 in0.0 mm 0.13 in3.3 mm
02:33 AM 58.8°F14.9°C 56.2°F13.4°C 91% 8.9 mph NNE14.3 kmh NNE 11.9 mph19.2 kmh 29.94 in1013.9 mb 0.13 in3.3 mm 0.00 in0.0 mm 0.13 in3.3 mm
02:32 AM 58.8°F14.9°C 56.2°F13.4°C 91% 7.8 mph NNE12.6 kmh NNE 11.9 mph19.2 kmh 29.94 in1013.9 mb 0.13 in3.3 mm 0.00 in0.0 mm 0.13 in3.3 mm
02:31 AM 58.8°F14.9°C 56.2°F13.4°C 91% 4.2 mph NNE6.8 kmh NNE 11.9 mph19.2 kmh 29.94 in1013.9 mb 0.13 in3.3 mm 0.00 in0.0 mm 0.13 in3.3 mm
02:30 AM 59.0°F15.0°C 56.4°F13.6°C 91% 5.8 mph NNE9.3 kmh NNE 11.9 mph19.2 kmh 29.94 in1013.9 mb 0.13 in3.3 mm 0.00 in0.0 mm 0.13 in3.3 mm
02:29 AM 59.0°F15.0°C 56.4°F13.6°C 91% 5.3 mph NNE8.5 kmh NNE 11.9 mph19.2 kmh 29.94 in1013.9 mb 0.13 in3.3 mm 0.00 in0.0 mm 0.13 in3.3 mm
02:28 AM 59.0°F15.0°C 56.4°F13.6°C 91% 6.8 mph NNE10.9 kmh NNE 11.9 mph19.2 kmh 29.94 in1013.9 mb 0.13 in3.3 mm 0.00 in0.0 mm 0.13 in3.3 mm
02:27 AM 59.0°F15.0°C 56.4°F13.6°C 91% 7.8 mph NNE12.6 kmh NNE 11.9 mph19.2 kmh 29.94 in1013.9 mb 0.13 in3.3 mm 0.00 in0.0 mm 0.13 in3.3 mm
02:26 AM 59.0°F15.0°C 56.4°F13.6°C 91% 6.3 mph N10.1 kmh N 11.9 mph19.2 kmh 29.94 in1013.9 mb 0.13 in3.3 mm 0.00 in0.0 mm 0.13 in3.3 mm
02:25 AM 59.0°F15.0°C 56.4°F13.6°C 91% 7.8 mph NNE12.6 kmh NNE 11.9 mph19.2 kmh 29.94 in1013.9 mb 0.13 in3.3 mm 0.00 in0.0 mm 0.13 in3.3 mm
02:24 AM 59.0°F15.0°C 56.4°F13.6°C 91% 9.9 mph NE15.9 kmh NE 11.9 mph19.2 kmh 29.93 in1013.5 mb 0.13 in3.3 mm 0.00 in0.0 mm 0.13 in3.3 mm
02:23 AM 59.0°F15.0°C 56.4°F13.6°C 91% 6.3 mph NNE10.1 kmh NNE 8.3 mph13.4 kmh 29.93 in1013.5 mb 0.13 in3.3 mm 0.00 in0.0 mm 0.13 in3.3 mm
02:22 AM 59.0°F15.0°C 56.4°F13.6°C 91% 6.3 mph NNW10.1 kmh NNW 8.3 mph13.4 kmh 29.93 in1013.5 mb 0.13 in3.3 mm 0.00 in0.0 mm 0.13 in3.3 mm
02:21 AM 59.0°F15.0°C 56.4°F13.6°C 91% 8.3 mph NNE13.4 kmh NNE 8.3 mph13.4 kmh 29.93 in1013.5 mb 0.13 in3.3 mm 0.00 in0.0 mm 0.13 in3.3 mm
02:20 AM 59.0°F15.0°C 56.4°F13.6°C 91% 3.2 mph NNW5.1 kmh NNW 7.3 mph11.7 kmh 29.93 in1013.5 mb 0.13 in3.3 mm 0.00 in0.0 mm 0.13 in3.3 mm
02:19 AM 59.0°F15.0°C 56.4°F13.6°C 91% 6.3 mph NNE10.1 kmh NNE 7.3 mph11.7 kmh 29.93 in1013.5 mb 0.13 in3.3 mm 0.00 in0.0 mm 0.13 in3.3 mm
02:18 AM 59.0°F15.0°C 56.4°F13.6°C 91% 4.7 mph NNE7.6 kmh NNE 8.3 mph13.4 kmh 29.93 in1013.5 mb 0.13 in3.3 mm 0.00 in0.0 mm 0.13 in3.3 mm
02:17 AM 59.0°F15.0°C 56.4°F13.6°C 91% 3.7 mph NNE6.0 kmh NNE 8.3 mph13.4 kmh 29.93 in1013.5 mb 0.13 in3.3 mm 0.60 in15.2 mm 0.13 in3.3 mm
02:16 AM 59.0°F15.0°C 56.4°F13.6°C 91% 6.8 mph NE10.9 kmh NE 8.3 mph13.4 kmh 29.93 in1013.5 mb 0.12 in3.0 mm 0.00 in0.0 mm 0.12 in3.0 mm
02:15 AM 59.0°F15.0°C 56.4°F13.6°C 91% 3.7 mph NE6.0 kmh NE 8.3 mph13.4 kmh 29.93 in1013.5 mb 0.12 in3.0 mm 0.60 in15.2 mm 0.12 in3.0 mm
02:14 AM 59.0°F15.0°C 56.4°F13.6°C 91% 4.7 mph NNE7.6 kmh NNE 8.3 mph13.4 kmh 29.93 in1013.5 mb 0.11 in2.8 mm 1.20 in30.5 mm 0.11 in2.8 mm
02:13 AM 59.2°F15.1°C 56.6°F13.7°C 91% 4.2 mph NNE6.8 kmh NNE 8.3 mph13.4 kmh 29.93 in1013.5 mb 0.09 in2.3 mm 0.60 in15.2 mm 0.09 in2.3 mm
02:12 AM 59.2°F15.1°C 56.6°F13.7°C 91% 4.7 mph NNE7.6 kmh NNE 8.3 mph13.4 kmh 29.94 in1013.9 mb 0.08 in2.0 mm 1.20 in30.5 mm 0.08 in2.0 mm
02:11 AM 59.2°F15.1°C 56.6°F13.7°C 91% 4.7 mph NE7.6 kmh NE 8.3 mph13.4 kmh 29.94 in1013.9 mb 0.06 in1.5 mm 1.80 in45.7 mm 0.06 in1.5 mm
02:10 AM 59.2°F15.1°C 56.3°F13.5°C 90% 7.3 mph N11.7 kmh N 8.3 mph13.4 kmh 29.94 in1013.9 mb 0.03 in0.8 mm 0.60 in15.2 mm 0.03 in0.8 mm
02:09 AM 59.2°F15.1°C 56.3°F13.5°C 90% 7.3 mph NNE11.7 kmh NNE 8.3 mph13.4 kmh 29.94 in1013.9 mb 0.02 in0.5 mm 0.60 in15.2 mm 0.02 in0.5 mm
02:08 AM 59.2°F15.1°C 56.3°F13.5°C 90% 5.3 mph NNE8.5 kmh NNE 7.8 mph12.6 kmh 29.94 in1013.9 mb 0.01 in0.3 mm 0.00 in0.0 mm 0.01 in0.3 mm
02:07 AM 59.2°F15.1°C 56.3°F13.5°C 90% 3.7 mph NNE6.0 kmh NNE 7.8 mph12.6 kmh 29.94 in1013.9 mb 0.01 in0.3 mm 0.00 in0.0 mm 0.01 in0.3 mm
02:06 AM 59.2°F15.1°C 56.3°F13.5°C 90% 3.7 mph N6.0 kmh N 8.9 mph14.3 kmh 29.94 in1013.9 mb 0.01 in0.3 mm 0.00 in0.0 mm 0.01 in0.3 mm
02:05 AM 59.2°F15.1°C 56.3°F13.5°C 90% 6.3 mph NNE10.1 kmh NNE 8.9 mph14.3 kmh 29.94 in1013.9 mb 0.01 in0.3 mm 0.00 in0.0 mm 0.01 in0.3 mm
02:04 AM 59.2°F15.1°C 56.3°F13.5°C 90% 5.3 mph NNE8.5 kmh NNE 8.9 mph14.3 kmh 29.94 in1013.9 mb 0.01 in0.3 mm 0.00 in0.0 mm 0.01 in0.3 mm
02:03 AM 59.2°F15.1°C 56.3°F13.5°C 90% 4.2 mph NNE6.8 kmh NNE 8.9 mph14.3 kmh 29.94 in1013.9 mb 0.01 in0.3 mm 0.00 in0.0 mm 0.01 in0.3 mm
02:02 AM 59.4°F15.2°C 56.5°F13.6°C 90% 5.3 mph E8.5 kmh E 9.9 mph15.9 kmh 29.94 in1013.9 mb 0.01 in0.3 mm 0.00 in0.0 mm 0.01 in0.3 mm
02:01 AM 59.4°F15.2°C 56.5°F13.6°C 90% 4.2 mph NNE6.8 kmh NNE 9.9 mph15.9 kmh 29.95 in1014.2 mb 0.01 in0.3 mm 0.00 in0.0 mm 0.01 in0.3 mm
02:00 AM 59.4°F15.2°C 56.5°F13.6°C 90% 6.8 mph NNE10.9 kmh NNE 9.9 mph15.9 kmh 29.95 in1014.2 mb 0.01 in0.3 mm 0.00 in0.0 mm 0.01 in0.3 mm
01:59 AM 59.4°F15.2°C 56.5°F13.6°C 90% 3.2 mph NNE5.1 kmh NNE 9.9 mph15.9 kmh 29.95 in1014.2 mb 0.01 in0.3 mm 0.00 in0.0 mm 0.01 in0.3 mm
01:58 AM 59.4°F15.2°C 56.5°F13.6°C 90% 4.2 mph NNE6.8 kmh NNE 9.9 mph15.9 kmh 29.95 in1014.2 mb 0.01 in0.3 mm 0.00 in0.0 mm 0.01 in0.3 mm
01:57 AM 59.4°F15.2°C 56.5°F13.6°C 90% 7.3 mph NNE11.7 kmh NNE 9.9 mph15.9 kmh 29.95 in1014.2 mb 0.01 in0.3 mm 0.00 in0.0 mm 0.01 in0.3 mm
01:56 AM 59.4°F15.2°C 56.5°F13.6°C 90% 6.3 mph NW10.1 kmh NW 9.9 mph15.9 kmh 29.95 in1014.2 mb 0.01 in0.3 mm 0.00 in0.0 mm 0.01 in0.3 mm
01:55 AM 59.4°F15.2°C 56.5°F13.6°C 90% 6.3 mph NNE10.1 kmh NNE 9.9 mph15.9 kmh 29.95 in1014.2 mb 0.01 in0.3 mm 0.00 in0.0 mm 0.01 in0.3 mm
01:54 AM 59.4°F15.2°C 56.5°F13.6°C 90% 4.7 mph NNE7.6 kmh NNE 9.9 mph15.9 kmh 29.95 in1014.2 mb 0.01 in0.3 mm 0.00 in0.0 mm 0.01 in0.3 mm
01:53 AM 59.4°F15.2°C 56.5°F13.6°C 90% 4.7 mph NNE7.6 kmh NNE 9.9 mph15.9 kmh 29.95 in1014.2 mb 0.01 in0.3 mm 0.00 in0.0 mm 0.01 in0.3 mm
01:52 AM 59.4°F15.2°C 56.2°F13.4°C 89% 9.9 mph NNE15.9 kmh NNE 9.9 mph15.9 kmh 29.95 in1014.2 mb 0.01 in0.3 mm 0.00 in0.0 mm 0.01 in0.3 mm
01:51 AM 59.4°F15.2°C 56.2°F13.4°C 89% 6.8 mph N10.9 kmh N 9.9 mph15.9 kmh 29.95 in1014.2 mb 0.01 in0.3 mm 0.00 in0.0 mm 0.01 in0.3 mm
01:50 AM 59.4°F15.2°C 56.2°F13.4°C 89% 8.3 mph NNE13.4 kmh NNE 9.9 mph15.9 kmh 29.95 in1014.2 mb 0.01 in0.3 mm 0.00 in0.0 mm 0.01 in0.3 mm
01:49 AM 59.5°F15.3°C 56.3°F13.5°C 89% 4.7 mph NNE7.6 kmh NNE 9.4 mph15.1 kmh 29.95 in1014.2 mb 0.01 in0.3 mm 0.00 in0.0 mm 0.01 in0.3 mm
01:48 AM 59.5°F15.3°C 56.3°F13.5°C 89% 5.3 mph NNE8.5 kmh NNE 9.4 mph15.1 kmh 29.95 in1014.2 mb 0.01 in0.3 mm 0.00 in0.0 mm 0.01 in0.3 mm
01:47 AM 59.5°F15.3°C 56.3°F13.5°C 89% 4.7 mph NE7.6 kmh NE 8.3 mph13.4 kmh 29.95 in1014.2 mb 0.01 in0.3 mm 0.00 in0.0 mm 0.01 in0.3 mm
01:46 AM 59.5°F15.3°C 56.3°F13.5°C 89% 4.2 mph NNE6.8 kmh NNE 8.3 mph13.4 kmh 29.95 in1014.2 mb 0.01 in0.3 mm 0.00 in0.0 mm 0.01 in0.3 mm
01:45 AM 59.5°F15.3°C 56.3°F13.5°C 89% 5.3 mph NNW8.5 kmh NNW 8.3 mph13.4 kmh 29.95 in1014.2 mb 0.01 in0.3 mm 0.00 in0.0 mm 0.01 in0.3 mm
01:44 AM 59.5°F15.3°C 56.3°F13.5°C 89% 5.8 mph NE9.3 kmh NE 8.3 mph13.4 kmh 29.95 in1014.2 mb 0.01 in0.3 mm 0.00 in0.0 mm 0.01 in0.3 mm
01:43 AM 59.5°F15.3°C 56.3°F13.5°C 89% 4.7 mph NE7.6 kmh NE 9.4 mph15.1 kmh 29.95 in1014.2 mb 0.01 in0.3 mm 0.00 in0.0 mm 0.01 in0.3 mm
01:42 AM 59.5°F15.3°C 56.3°F13.5°C 89% 7.3 mph NNE11.7 kmh NNE 9.4 mph15.1 kmh 29.95 in1014.2 mb 0.01 in0.3 mm 0.00 in0.0 mm 0.01 in0.3 mm
01:41 AM 59.7°F15.4°C 56.1°F13.4°C 88% 5.8 mph NE9.3 kmh NE 9.4 mph15.1 kmh 29.95 in1014.2 mb 0.01 in0.3 mm 0.00 in0.0 mm 0.01 in0.3 mm
01:40 AM 59.7°F15.4°C 56.1°F13.4°C 88% 3.2 mph NE5.1 kmh NE 9.4 mph15.1 kmh 29.95 in1014.2 mb 0.01 in0.3 mm 0.00 in0.0 mm 0.01 in0.3 mm
01:39 AM 59.7°F15.4°C 56.1°F13.4°C 88% 5.3 mph NNE8.5 kmh NNE 9.4 mph15.1 kmh 29.95 in1014.2 mb 0.01 in0.3 mm 0.00 in0.0 mm 0.01 in0.3 mm
01:38 AM 59.7°F15.4°C 56.1°F13.4°C 88% 5.8 mph NE9.3 kmh NE 9.4 mph15.1 kmh 29.95 in1014.2 mb 0.01 in0.3 mm 0.00 in0.0 mm 0.01 in0.3 mm
01:37 AM 59.7°F15.4°C 56.1°F13.4°C 88% 5.3 mph ENE8.5 kmh ENE 9.4 mph15.1 kmh 29.95 in1014.2 mb 0.01 in0.3 mm 0.00 in0.0 mm 0.01 in0.3 mm
01:36 AM 59.7°F15.4°C 56.1°F13.4°C 88% 5.8 mph N9.3 kmh N 10.4 mph16.7 kmh 29.95 in1014.2 mb 0.01 in0.3 mm 0.60 in15.2 mm 0.01 in0.3 mm
01:35 AM 59.9°F15.5°C 56.3°F13.5°C 88% 6.3 mph NNE10.1 kmh NNE 10.4 mph16.7 kmh 29.95 in1014.2 mb 0.00 in0.0 mm 0.00 in0.0 mm 0.00 in0.0 mm
01:34 AM 59.9°F15.5°C 56.0°F13.3°C 87% 7.8 mph NNE12.6 kmh NNE 10.4 mph16.7 kmh 29.95 in1014.2 mb 0.00 in0.0 mm 0.00 in0.0 mm 0.00 in0.0 mm
01:33 AM 59.9°F15.5°C 56.0°F13.3°C 87% 6.8 mph N10.9 kmh N 10.4 mph16.7 kmh 29.95 in1014.2 mb 0.00 in0.0 mm 0.00 in0.0 mm 0.00 in0.0 mm
01:32 AM 59.9°F15.5°C 56.0°F13.3°C 87% 6.3 mph NNE10.1 kmh NNE 10.4 mph16.7 kmh 29.95 in1014.2 mb 0.00 in0.0 mm 0.00 in0.0 mm 0.00 in0.0 mm
01:31 AM 59.9°F15.5°C 56.0°F13.3°C 87% 4.7 mph N7.6 kmh N 10.4 mph16.7 kmh 29.95 in1014.2 mb 0.00 in0.0 mm 0.00 in0.0 mm 0.00 in0.0 mm
01:30 AM 59.9°F15.5°C 56.0°F13.3°C 87% 4.2 mph NE6.8 kmh NE 10.4 mph16.7 kmh 29.95 in1014.2 mb 0.00 in0.0 mm 0.00 in0.0 mm 0.00 in0.0 mm
01:29 AM 60.1°F15.6°C 56.2°F13.4°C 87% 4.2 mph NE6.8 kmh NE 10.4 mph16.7 kmh 29.95 in1014.2 mb 0.00 in0.0 mm 0.00 in0.0 mm 0.00 in0.0 mm
01:28 AM 60.1°F15.6°C 56.2°F13.4°C 87% 7.3 mph NW11.7 kmh NW 10.4 mph16.7 kmh 29.95 in1014.2 mb 0.00 in0.0 mm 0.00 in0.0 mm 0.00 in0.0 mm
01:27 AM 60.1°F15.6°C 55.9°F13.3°C 86% 6.3 mph NE10.1 kmh NE 10.4 mph16.7 kmh 29.95 in1014.2 mb 0.00 in0.0 mm 0.00 in0.0 mm 0.00 in0.0 mm
01:26 AM 60.3°F15.7°C 56.1°F13.4°C 86% 10.4 mph NNE16.7 kmh NNE 10.4 mph16.7 kmh 29.95 in1014.2 mb 0.00 in0.0 mm 0.00 in0.0 mm 0.00 in0.0 mm
01:25 AM 60.3°F15.7°C 55.8°F13.2°C 85% 8.3 mph NNE13.4 kmh NNE 9.4 mph15.1 kmh 29.94 in1013.9 mb 0.00 in0.0 mm 0.00 in0.0 mm 0.00 in0.0 mm
01:24 AM 60.4°F15.8°C 55.9°F13.3°C 85% 7.8 mph NE12.6 kmh NE 7.8 mph12.6 kmh 29.94 in1013.9 mb 0.00 in0.0 mm 0.00 in0.0 mm 0.00 in0.0 mm
01:23 AM 60.4°F15.8°C 55.9°F13.3°C 85% 5.8 mph NNE9.3 kmh NNE 6.8 mph10.9 kmh 29.94 in1013.9 mb 0.00 in0.0 mm 0.00 in0.0 mm 0.00 in0.0 mm
01:22 AM 60.4°F15.8°C 55.9°F13.3°C 85% 3.7 mph NNE6.0 kmh NNE 6.8 mph10.9 kmh 29.94 in1013.9 mb 0.00 in0.0 mm 0.00 in0.0 mm 0.00 in0.0 mm
01:21 AM 60.4°F15.8°C 55.9°F13.3°C 85% 6.3 mph NE10.1 kmh NE 6.8 mph10.9 kmh 29.94 in1013.9 mb 0.00 in0.0 mm 0.00 in0.0 mm 0.00 in0.0 mm
01:20 AM 60.4°F15.8°C 55.5°F13.1°C 84% 3.7 mph NNE6.0 kmh NNE 6.8 mph10.9 kmh 29.94 in1013.9 mb 0.00 in0.0 mm 0.00 in0.0 mm 0.00 in0.0 mm
01:19 AM 60.6°F15.9°C 55.7°F13.2°C 84% 4.2 mph NNE6.8 kmh NNE 11.4 mph18.3 kmh 29.94 in1013.9 mb 0.00 in0.0 mm 0.00 in0.0 mm 0.00 in0.0 mm
01:18 AM 60.6°F15.9°C 55.7°F13.2°C 84% 5.3 mph NNE8.5 kmh NNE 11.4 mph18.3 kmh 29.94 in1013.9 mb 0.00 in0.0 mm 0.00 in0.0 mm 0.00 in0.0 mm
01:17 AM 60.6°F15.9°C 55.7°F13.2°C 84% 4.2 mph NNE6.8 kmh NNE 11.4 mph18.3 kmh 29.94 in1013.9 mb 0.00 in0.0 mm 0.00 in0.0 mm 0.00 in0.0 mm
01:16 AM 60.6°F15.9°C 55.7°F13.2°C 84% 3.2 mph N5.1 kmh N 11.4 mph18.3 kmh 29.94 in1013.9 mb 0.00 in0.0 mm 0.00 in0.0 mm 0.00 in0.0 mm
01:15 AM 60.6°F15.9°C 55.7°F13.2°C 84% 3.2 mph ENE5.1 kmh ENE 11.4 mph18.3 kmh 29.94 in1013.9 mb 0.00 in0.0 mm 0.00 in0.0 mm 0.00 in0.0 mm
01:14 AM 60.6°F15.9°C 55.7°F13.2°C 84% 4.2 mph NE6.8 kmh NE 11.4 mph18.3 kmh 29.94 in1013.9 mb 0.00 in0.0 mm 0.00 in0.0 mm 0.00 in0.0 mm
01:13 AM 60.6°F15.9°C 55.7°F13.2°C 84% 3.7 mph NNE6.0 kmh NNE 11.4 mph18.3 kmh 29.94 in1013.9 mb 0.00 in0.0 mm 0.00 in0.0 mm 0.00 in0.0 mm
01:12 AM 60.6°F15.9°C 55.7°F13.2°C 84% 4.2 mph ENE6.8 kmh ENE 11.4 mph18.3 kmh 29.95 in1014.2 mb 0.00 in0.0 mm 0.00 in0.0 mm 0.00 in0.0 mm
01:11 AM 60.6°F15.9°C 55.4°F13.0°C 83% 3.7 mph NE6.0 kmh NE 11.4 mph18.3 kmh 29.95 in1014.2 mb 0.00 in0.0 mm 0.00 in0.0 mm 0.00 in0.0 mm
01:10 AM 60.8°F16.0°C 55.6°F13.1°C 83% 5.3 mph NE8.5 kmh NE 11.4 mph18.3 kmh 29.95 in1014.2 mb 0.00 in0.0 mm 0.00 in0.0 mm 0.00 in0.0 mm
01:09 AM 60.8°F16.0°C 55.6°F13.1°C 83% 11.4 mph N18.3 kmh N 11.9 mph19.2 kmh 29.95 in1014.2 mb 0.00 in0.0 mm 0.00 in0.0 mm 0.00 in0.0 mm
01:08 AM 60.8°F16.0°C 55.6°F13.1°C 83% 7.3 mph NNE11.7 kmh NNE 11.9 mph19.2 kmh 29.95 in1014.2 mb 0.00 in0.0 mm 0.00 in0.0 mm 0.00 in0.0 mm
01:07 AM 61.0°F16.1°C 55.8°F13.2°C 83% 8.3 mph NNE13.4 kmh NNE 11.9 mph19.2 kmh 29.95 in1014.2 mb 0.00 in0.0 mm 0.00 in0.0 mm 0.00 in0.0 mm
01:06 AM 61.0°F16.1°C 55.8°F13.2°C 83% 4.7 mph NE7.6 kmh NE 11.9 mph19.2 kmh 29.95 in1014.2 mb 0.00 in0.0 mm 0.00 in0.0 mm 0.00 in0.0 mm
01:05 AM 61.0°F16.1°C 55.8°F13.2°C 83% 5.3 mph NNE8.5 kmh NNE 11.9 mph19.2 kmh 29.95 in1014.2 mb 0.00 in0.0 mm 0.00 in0.0 mm 0.00 in0.0 mm
01:04 AM 61.0°F16.1°C 55.5°F13.1°C 82% 4.2 mph ENE6.8 kmh ENE 11.9 mph19.2 kmh 29.95 in1014.2 mb 0.00 in0.0 mm 0.00 in0.0 mm 0.00 in0.0 mm
01:03 AM 61.2°F16.2°C 55.7°F13.2°C 82% 4.7 mph ENE7.6 kmh ENE 11.9 mph19.2 kmh 29.95 in1014.2 mb 0.00 in0.0 mm 0.00 in0.0 mm 0.00 in0.0 mm
01:02 AM 61.2°F16.2°C 55.7°F13.2°C 82% 4.7 mph NE7.6 kmh NE 11.9 mph19.2 kmh 29.95 in1014.2 mb 0.00 in0.0 mm 0.00 in0.0 mm 0.00 in0.0 mm
01:01 AM 61.2°F16.2°C 55.3°F12.9°C 81% 5.3 mph ENE8.5 kmh ENE 11.9 mph19.2 kmh 29.95 in1014.2 mb 0.00 in0.0 mm 0.00 in0.0 mm 0.00 in0.0 mm
01:00 AM 61.3°F16.3°C 55.4°F13.0°C 81% 9.9 mph NE15.9 kmh NE 11.9 mph19.2 kmh 29.94 in1013.9 mb 0.00 in0.0 mm 0.00 in0.0 mm 0.00 in0.0 mm
12:59 AM 61.3°F16.3°C 55.4°F13.0°C 81% 3.2 mph NNE5.1 kmh NNE 9.9 mph15.9 kmh 29.94 in1013.9 mb 0.00 in0.0 mm 0.00 in0.0 mm 0.00 in0.0 mm
12:58 AM 61.3°F16.3°C 55.4°F13.0°C 81% 4.2 mph NNE6.8 kmh NNE 9.9 mph15.9 kmh 29.94 in1013.9 mb 0.00 in0.0 mm 0.00 in0.0 mm 0.00 in0.0 mm
12:57 AM 61.3°F16.3°C 55.4°F13.0°C 81% 9.4 mph NNE15.1 kmh NNE 9.9 mph15.9 kmh 29.94 in1013.9 mb 0.00 in0.0 mm 0.00 in0.0 mm 0.00 in0.0 mm
12:56 AM 61.3°F16.3°C 55.4°F13.0°C 81% 5.8 mph NNE9.3 kmh NNE 9.9 mph15.9 kmh 29.94 in1013.9 mb 0.00 in0.0 mm 0.00 in0.0 mm 0.00 in0.0 mm
12:55 AM 61.3°F16.3°C 55.4°F13.0°C 81% 6.3 mph NE10.1 kmh NE 9.9 mph15.9 kmh 29.94 in1013.9 mb 0.00 in0.0 mm 0.00 in0.0 mm 0.00 in0.0 mm
12:54 AM 61.3°F16.3°C 55.4°F13.0°C 81% 5.8 mph NNE9.3 kmh NNE 9.9 mph15.9 kmh 29.94 in1013.9 mb 0.00 in0.0 mm 0.00 in0.0 mm 0.00 in0.0 mm
12:53 AM 61.3°F16.3°C 55.4°F13.0°C 81% 5.3 mph NNE8.5 kmh NNE 10.4 mph16.7 kmh 29.94 in1013.9 mb 0.00 in0.0 mm 0.00 in0.0 mm 0.00 in0.0 mm
12:52 AM 61.3°F16.3°C 55.4°F13.0°C 81% 6.8 mph NNE10.9 kmh NNE 10.4 mph16.7 kmh 29.94 in1013.9 mb 0.00 in0.0 mm 0.00 in0.0 mm 0.00 in0.0 mm
12:51 AM 61.3°F16.3°C 55.4°F13.0°C 81% 6.3 mph NNE10.1 kmh NNE 10.4 mph16.7 kmh 29.94 in1013.9 mb 0.00 in0.0 mm 0.00 in0.0 mm 0.00 in0.0 mm
12:50 AM 61.3°F16.3°C 55.4°F13.0°C 81% 4.2 mph NE6.8 kmh NE 10.4 mph16.7 kmh 29.94 in1013.9 mb 0.00 in0.0 mm 0.00 in0.0 mm 0.00 in0.0 mm
12:49 AM 61.3°F16.3°C 55.4°F13.0°C 81% 7.8 mph E12.6 kmh E 10.4 mph16.7 kmh 29.94 in1013.9 mb 0.00 in0.0 mm 0.00 in0.0 mm 0.00 in0.0 mm
12:48 AM 61.3°F16.3°C 55.4°F13.0°C 81% 5.3 mph N8.5 kmh N 10.9 mph17.5 kmh 29.94 in1013.9 mb 0.00 in0.0 mm 0.00 in0.0 mm 0.00 in0.0 mm
12:47 AM 61.3°F16.3°C 55.4°F13.0°C 81% 5.3 mph NE8.5 kmh NE 10.9 mph17.5 kmh 29.94 in1013.9 mb 0.00 in0.0 mm 0.00 in0.0 mm 0.00 in0.0 mm
12:46 AM 61.3°F16.3°C 55.4°F13.0°C 81% 6.8 mph NNE10.9 kmh NNE 10.9 mph17.5 kmh 29.94 in1013.9 mb 0.00 in0.0 mm 0.00 in0.0 mm 0.00 in0.0 mm
12:45 AM 61.3°F16.3°C 55.4°F13.0°C 81% 5.8 mph NNE9.3 kmh NNE 11.4 mph18.3 kmh 29.94 in1013.9 mb 0.00 in0.0 mm 0.00 in0.0 mm 0.00 in0.0 mm
12:44 AM 61.3°F16.3°C 55.4°F13.0°C 81% 5.8 mph NE9.3 kmh NE 11.4 mph18.3 kmh 29.94 in1013.9 mb 0.00 in0.0 mm 0.00 in0.0 mm 0.00 in0.0 mm
12:43 AM 61.3°F16.3°C 55.4°F13.0°C 81% 6.8 mph NNE10.9 kmh NNE 11.4 mph18.3 kmh 29.94 in1013.9 mb 0.00 in0.0 mm 0.00 in0.0 mm 0.00 in0.0 mm
12:42 AM 61.3°F16.3°C 55.4°F13.0°C 81% 7.3 mph ENE11.7 kmh ENE 11.4 mph18.3 kmh 29.94 in1013.9 mb 0.00 in0.0 mm 0.00 in0.0 mm 0.00 in0.0 mm
12:41 AM 61.3°F16.3°C 55.4°F13.0°C 81% 3.2 mph NNW5.1 kmh NNW 12.5 mph20.1 kmh 29.94 in1013.9 mb 0.00 in0.0 mm 0.00 in0.0 mm 0.00 in0.0 mm
12:40 AM 61.3°F16.3°C 55.4°F13.0°C 81% 6.3 mph NE10.1 kmh NE 12.5 mph20.1 kmh 29.94 in1013.9 mb 0.00 in0.0 mm 0.00 in0.0 mm 0.00 in0.0 mm
12:39 AM 61.3°F16.3°C 55.4°F13.0°C 81% 5.8 mph NNE9.3 kmh NNE 12.5 mph20.1 kmh 29.94 in1013.9 mb 0.00 in0.0 mm 0.00 in0.0 mm 0.00 in0.0 mm
12:38 AM 61.3°F16.3°C 55.4°F13.0°C 81% 10.9 mph ENE17.5 kmh ENE 12.5 mph20.1 kmh 29.94 in1013.9 mb 0.00 in0.0 mm 0.00 in0.0 mm 0.00 in0.0 mm
12:37 AM 61.3°F16.3°C 55.4°F13.0°C 81% 9.4 mph NNE15.1 kmh NNE 12.5 mph20.1 kmh 29.94 in1013.9 mb 0.00 in0.0 mm 0.00 in0.0 mm 0.00 in0.0 mm
12:36 AM 61.3°F16.3°C 55.4°F13.0°C 81% 6.3 mph NE10.1 kmh NE 12.5 mph20.1 kmh 29.94 in1013.9 mb 0.00 in0.0 mm 0.00 in0.0 mm 0.00 in0.0 mm
12:35 AM 61.5°F16.4°C 55.3°F12.9°C 80% 9.9 mph E15.9 kmh E 12.5 mph20.1 kmh 29.94 in1013.9 mb 0.00 in0.0 mm 0.00 in0.0 mm 0.00 in0.0 mm
12:34 AM 61.5°F16.4°C 55.3°F12.9°C 80% 8.9 mph N14.3 kmh N 12.5 mph20.1 kmh 29.94 in1013.9 mb 0.00 in0.0 mm 0.00 in0.0 mm 0.00 in0.0 mm
12:33 AM 61.5°F16.4°C 55.3°F12.9°C 80% 6.8 mph ENE10.9 kmh ENE 12.5 mph20.1 kmh 29.94 in1013.9 mb 0.00 in0.0 mm 0.00 in0.0 mm 0.00 in0.0 mm
12:32 AM 61.5°F16.4°C 55.3°F12.9°C 80% 9.4 mph NNE15.1 kmh NNE 12.5 mph20.1 kmh 29.94 in1013.9 mb 0.00 in0.0 mm 0.00 in0.0 mm 0.00 in0.0 mm
12:31 AM 61.7°F16.5°C 55.5°F13.1°C 80% 8.3 mph NNE13.4 kmh NNE 10.4 mph16.7 kmh 29.94 in1013.9 mb 0.00 in0.0 mm 0.00 in0.0 mm 0.00 in0.0 mm
12:30 AM 61.7°F16.5°C 55.5°F13.1°C 80% 5.8 mph N9.3 kmh N 10.4 mph16.7 kmh 29.94 in1013.9 mb 0.00 in0.0 mm 0.00 in0.0 mm 0.00 in0.0 mm
12:29 AM 61.7°F16.5°C 55.5°F13.1°C 80% 10.4 mph NNE16.7 kmh NNE 10.4 mph16.7 kmh 29.94 in1013.9 mb 0.00 in0.0 mm 0.00 in0.0 mm 0.00 in0.0 mm
12:28 AM 61.9°F16.6°C 55.7°F13.2°C 80% 5.3 mph NNW8.5 kmh NNW 8.3 mph13.4 kmh 29.94 in1013.9 mb 0.00 in0.0 mm 0.00 in0.0 mm 0.00 in0.0 mm
12:27 AM 61.9°F16.6°C 55.7°F13.2°C 80% 7.3 mph NNE11.7 kmh NNE 9.9 mph15.9 kmh 29.94 in1013.9 mb 0.00 in0.0 mm 0.00 in0.0 mm 0.00 in0.0 mm
12:26 AM 61.9°F16.6°C 55.7°F13.2°C 80% 3.2 mph NNE5.1 kmh NNE 10.9 mph17.5 kmh 29.94 in1013.9 mb 0.00 in0.0 mm 0.00 in0.0 mm 0.00 in0.0 mm
12:25 AM 61.9°F16.6°C 55.7°F13.2°C 80% 5.8 mph NE9.3 kmh NE 10.9 mph17.5 kmh 29.95 in1014.2 mb 0.00 in0.0 mm 0.00 in0.0 mm 0.00 in0.0 mm
12:24 AM 61.9°F16.6°C 55.7°F13.2°C 80% 4.2 mph N6.8 kmh N 10.9 mph17.5 kmh 29.95 in1014.2 mb 0.00 in0.0 mm 0.00 in0.0 mm 0.00 in0.0 mm
12:23 AM 61.9°F16.6°C 55.7°F13.2°C 80% 3.2 mph NNE5.1 kmh NNE 10.9 mph17.5 kmh 29.95 in1014.2 mb 0.00 in0.0 mm 0.00 in0.0 mm 0.00 in0.0 mm
12:22 AM 61.9°F16.6°C 55.7°F13.2°C 80% 4.7 mph NNE7.6 kmh NNE 10.9 mph17.5 kmh 29.95 in1014.2 mb 0.00 in0.0 mm 0.00 in0.0 mm 0.00 in0.0 mm
12:21 AM 61.9°F16.6°C 55.7°F13.2°C 80% 4.2 mph NNE6.8 kmh NNE 10.9 mph17.5 kmh 29.95 in1014.2 mb 0.00 in0.0 mm 0.00 in0.0 mm 0.00 in0.0 mm
12:20 AM 61.9°F16.6°C 55.7°F13.2°C 80% 4.7 mph NNE7.6 kmh NNE 15.5 mph24.9 kmh 29.95 in1014.2 mb 0.00 in0.0 mm 0.00 in0.0 mm 0.00 in0.0 mm
12:19 AM 61.9°F16.6°C 55.7°F13.2°C 80% 5.8 mph NE9.3 kmh NE 15.5 mph24.9 kmh 29.95 in1014.2 mb 0.00 in0.0 mm 0.00 in0.0 mm 0.00 in0.0 mm
12:18 AM 61.9°F16.6°C 55.7°F13.2°C 80% 8.3 mph NNE13.4 kmh NNE 15.5 mph24.9 kmh 29.95 in1014.2 mb 0.00 in0.0 mm 0.00 in0.0 mm 0.00 in0.0 mm
12:17 AM 61.9°F16.6°C 55.7°F13.2°C 80% 9.9 mph NNE15.9 kmh NNE 15.5 mph24.9 kmh 29.95 in1014.2 mb 0.00 in0.0 mm 0.00 in0.0 mm 0.00 in0.0 mm
12:16 AM 61.9°F16.6°C 55.7°F13.2°C 80% 10.9 mph NNE17.5 kmh NNE 15.5 mph24.9 kmh 29.95 in1014.2 mb 0.00 in0.0 mm 0.00 in0.0 mm 0.00 in0.0 mm
12:15 AM 62.1°F16.7°C 55.9°F13.3°C 80% 7.8 mph NNE12.6 kmh NNE 15.5 mph24.9 kmh 29.95 in1014.2 mb 0.00 in0.0 mm 0.00 in0.0 mm 0.00 in0.0 mm
12:14 AM 62.1°F16.7°C 55.9°F13.3°C 80% 6.8 mph N10.9 kmh N 15.5 mph24.9 kmh 29.95 in1014.2 mb 0.00 in0.0 mm 0.00 in0.0 mm 0.00 in0.0 mm
12:13 AM 62.1°F16.7°C 55.9°F13.3°C 80% 6.3 mph E10.1 kmh E 15.5 mph24.9 kmh 29.95 in1014.2 mb 0.00 in0.0 mm 0.00 in0.0 mm 0.00 in0.0 mm
12:12 AM 62.1°F16.7°C 55.9°F13.3°C 80% 9.4 mph NE15.1 kmh NE 15.5 mph24.9 kmh 29.93 in1013.5 mb 0.00 in0.0 mm 0.00 in0.0 mm 0.00 in0.0 mm
12:11 AM 62.1°F16.7°C 55.9°F13.3°C 80% 8.9 mph NNE14.3 kmh NNE 15.5 mph24.9 kmh 29.93 in1013.5 mb 0.00 in0.0 mm 0.00 in0.0 mm 0.00 in0.0 mm
12:10 AM 62.2°F16.8°C 56.0°F13.3°C 80% 10.9 mph NE17.5 kmh NE 14.0 mph22.5 kmh 29.93 in1013.5 mb 0.00 in0.0 mm 0.00 in0.0 mm 0.00 in0.0 mm
12:09 AM 62.2°F16.8°C 56.0°F13.3°C 80% 8.3 mph NE13.4 kmh NE 14.0 mph22.5 kmh 29.93 in1013.5 mb 0.00 in0.0 mm 0.00 in0.0 mm 0.00 in0.0 mm
12:08 AM 62.4°F16.9°C 56.1°F13.4°C 80% 7.3 mph NE11.7 kmh NE 14.0 mph22.5 kmh 29.93 in1013.5 mb 0.00 in0.0 mm 0.00 in0.0 mm 0.00 in0.0 mm
12:07 AM 62.4°F16.9°C 56.1°F13.4°C 80% 9.9 mph NE15.9 kmh NE 14.5 mph23.3 kmh 29.93 in1013.5 mb 0.00 in0.0 mm 0.00 in0.0 mm 0.00 in0.0 mm
12:06 AM 62.4°F16.9°C 56.1°F13.4°C 80% 7.3 mph E11.7 kmh E 14.5 mph23.3 kmh 29.93 in1013.5 mb 0.00 in0.0 mm 0.00 in0.0 mm 0.00 in0.0 mm
12:05 AM 62.4°F16.9°C 56.1°F13.4°C 80% 4.2 mph NNE6.8 kmh NNE 14.5 mph23.3 kmh 29.93 in1013.5 mb 0.00 in0.0 mm 0.00 in0.0 mm 0.00 in0.0 mm
12:04 AM 62.4°F16.9°C 56.1°F13.4°C 80% 5.8 mph ENE9.3 kmh ENE 14.5 mph23.3 kmh 29.93 in1013.5 mb 0.00 in0.0 mm 0.00 in0.0 mm 0.00 in0.0 mm
12:03 AM 62.4°F16.9°C 56.1°F13.4°C 80% 6.8 mph NE10.9 kmh NE 14.5 mph23.3 kmh 29.93 in1013.5 mb 0.00 in0.0 mm 0.00 in0.0 mm 0.00 in0.0 mm
12:02 AM 62.6°F17.0°C 56.3°F13.5°C 80% 10.9 mph ESE17.5 kmh ESE 14.5 mph23.3 kmh 29.93 in1013.5 mb 0.00 in0.0 mm 0.00 in0.0 mm 0.00 in0.0 mm
12:01 AM 62.6°F17.0°C 56.7°F13.7°C 81% 7.8 mph ESE12.6 kmh ESE 14.5 mph23.3 kmh 29.94 in1013.9 mb 0.00 in0.0 mm 0.00 in0.0 mm 0.00 in0.0 mm
12:00 AM 62.6°F17.0°C 56.7°F13.7°C 81% 6.3 mph ESE10.1 kmh ESE 14.5 mph23.3 kmh 29.94 in1013.9 mb 0.00 in0.0 mm 0.00 in0.0 mm 0.00 in0.0 mm